sensor_id;sensor_type;location;lat;lon;timestamp;P1;durP1;ratioP1;P2;durP2;ratioP2
50429;SDS011;36359;41.556;-8.418;2024-03-08T00:01:18;3.37;;;1.73;;
50429;SDS011;36359;41.556;-8.418;2024-03-08T00:03:44;4.37;;;2.30;;
50429;SDS011;36359;41.556;-8.418;2024-03-08T00:06:10;5.37;;;2.77;;
50429;SDS011;36359;41.556;-8.418;2024-03-08T00:08:35;5.80;;;3.30;;
50429;SDS011;36359;41.556;-8.418;2024-03-08T00:11:01;5.33;;;3.50;;
50429;SDS011;36359;41.556;-8.418;2024-03-08T00:13:27;3.80;;;2.33;;
50429;SDS011;36359;41.556;-8.418;2024-03-08T00:15:53;3.50;;;2.20;;
50429;SDS011;36359;41.556;-8.418;2024-03-08T00:18:19;3.93;;;2.17;;
50429;SDS011;36359;41.556;-8.418;2024-03-08T00:20:44;3.90;;;1.90;;
50429;SDS011;36359;41.556;-8.418;2024-03-08T00:23:10;4.53;;;1.87;;
50429;SDS011;36359;41.556;-8.418;2024-03-08T00:25:37;4.27;;;1.90;;
50429;SDS011;36359;41.556;-8.418;2024-03-08T00:28:04;2.37;;;1.53;;
50429;SDS011;36359;41.556;-8.418;2024-03-08T00:30:30;3.43;;;2.40;;
50429;SDS011;36359;41.556;-8.418;2024-03-08T00:32:56;3.27;;;1.70;;
50429;SDS011;36359;41.556;-8.418;2024-03-08T00:35:22;3.87;;;1.90;;
50429;SDS011;36359;41.556;-8.418;2024-03-08T00:37:48;3.23;;;1.63;;
50429;SDS011;36359;41.556;-8.418;2024-03-08T00:40:14;3.57;;;1.87;;
50429;SDS011;36359;41.556;-8.418;2024-03-08T00:42:40;3.17;;;1.50;;
50429;SDS011;36359;41.556;-8.418;2024-03-08T00:45:06;2.00;;;1.20;;
50429;SDS011;36359;41.556;-8.418;2024-03-08T00:47:33;2.40;;;1.50;;
50429;SDS011;36359;41.556;-8.418;2024-03-08T00:49:58;3.87;;;1.60;;
50429;SDS011;36359;41.556;-8.418;2024-03-08T00:52:24;2.27;;;1.20;;
50429;SDS011;36359;41.556;-8.418;2024-03-08T00:54:50;3.77;;;2.20;;
50429;SDS011;36359;41.556;-8.418;2024-03-08T00:57:16;2.03;;;1.07;;
50429;SDS011;36359;41.556;-8.418;2024-03-08T00:59:41;2.03;;;1.10;;
50429;SDS011;36359;41.556;-8.418;2024-03-08T01:02:07;3.07;;;1.40;;
50429;SDS011;36359;41.556;-8.418;2024-03-08T01:04:36;5.00;;;1.23;;
50429;SDS011;36359;41.556;-8.418;2024-03-08T01:07:02;3.43;;;1.33;;
50429;SDS011;36359;41.556;-8.418;2024-03-08T01:09:27;2.00;;;1.00;;
50429;SDS011;36359;41.556;-8.418;2024-03-08T01:11:56;3.83;;;1.23;;
50429;SDS011;36359;41.556;-8.418;2024-03-08T01:14:23;2.40;;;1.00;;
50429;SDS011;36359;41.556;-8.418;2024-03-08T01:16:50;2.70;;;1.20;;
50429;SDS011;36359;41.556;-8.418;2024-03-08T01:19:16;2.87;;;0.93;;
50429;SDS011;36359;41.556;-8.418;2024-03-08T01:21:42;2.67;;;1.00;;
50429;SDS011;36359;41.556;-8.418;2024-03-08T01:24:08;1.70;;;0.80;;
50429;SDS011;36359;41.556;-8.418;2024-03-08T01:26:34;1.50;;;0.73;;
50429;SDS011;36359;41.556;-8.418;2024-03-08T01:29:00;1.80;;;1.03;;
50429;SDS011;36359;41.556;-8.418;2024-03-08T01:31:31;2.43;;;0.80;;
50429;SDS011;36359;41.556;-8.418;2024-03-08T01:34:00;2.17;;;0.60;;
50429;SDS011;36359;41.556;-8.418;2024-03-08T01:36:26;1.87;;;0.90;;
50429;SDS011;36359;41.556;-8.418;2024-03-08T01:38:52;1.80;;;0.80;;
50429;SDS011;36359;41.556;-8.418;2024-03-08T01:41:18;1.47;;;0.43;;
50429;SDS011;36359;41.556;-8.418;2024-03-08T01:43:44;1.50;;;0.50;;
50429;SDS011;36359;41.556;-8.418;2024-03-08T01:46:11;1.10;;;0.57;;
50429;SDS011;36359;41.556;-8.418;2024-03-08T01:48:40;1.60;;;0.63;;
50429;SDS011;36359;41.556;-8.418;2024-03-08T01:51:07;1.63;;;0.60;;
50429;SDS011;36359;41.556;-8.418;2024-03-08T01:53:33;2.93;;;0.70;;
50429;SDS011;36359;41.556;-8.418;2024-03-08T01:56:00;1.17;;;0.50;;
50429;SDS011;36359;41.556;-8.418;2024-03-08T01:58:28;1.70;;;0.80;;
50429;SDS011;36359;41.556;-8.418;2024-03-08T02:00:58;1.00;;;0.40;;
50429;SDS011;36359;41.556;-8.418;2024-03-08T02:03:25;2.30;;;0.60;;
50429;SDS011;36359;41.556;-8.418;2024-03-08T02:05:50;1.23;;;0.57;;
50429;SDS011;36359;41.556;-8.418;2024-03-08T02:08:20;1.60;;;0.50;;
50429;SDS011;36359;41.556;-8.418;2024-03-08T02:10:47;1.27;;;0.53;;
50429;SDS011;36359;41.556;-8.418;2024-03-08T02:13:15;1.10;;;0.40;;
50429;SDS011;36359;41.556;-8.418;2024-03-08T02:18:36;0.60;;;0.40;;
50429;SDS011;36359;41.556;-8.418;2024-03-08T02:21:02;0.87;;;0.40;;
50429;SDS011;36359;41.556;-8.418;2024-03-08T02:23:29;1.23;;;0.40;;
50429;SDS011;36359;41.556;-8.418;2024-03-08T02:25:55;1.00;;;0.40;;
50429;SDS011;36359;41.556;-8.418;2024-03-08T02:28:22;0.70;;;0.30;;
50429;SDS011;36359;41.556;-8.418;2024-03-08T02:30:49;1.67;;;0.30;;
50429;SDS011;36359;41.556;-8.418;2024-03-08T02:33:16;1.13;;;0.47;;
50429;SDS011;36359;41.556;-8.418;2024-03-08T02:35:46;1.97;;;0.70;;
50429;SDS011;36359;41.556;-8.418;2024-03-08T02:38:16;1.30;;;0.50;;
50429;SDS011;36359;41.556;-8.418;2024-03-08T02:43:10;0.70;;;0.40;;
50429;SDS011;36359;41.556;-8.418;2024-03-08T02:45:36;1.83;;;0.50;;
50429;SDS011;36359;41.556;-8.418;2024-03-08T02:48:02;1.50;;;0.60;;
50429;SDS011;36359;41.556;-8.418;2024-03-08T02:50:28;1.87;;;0.63;;
50429;SDS011;36359;41.556;-8.418;2024-03-08T02:53:01;1.43;;;0.67;;
50429;SDS011;36359;41.556;-8.418;2024-03-08T02:55:27;1.87;;;0.50;;
50429;SDS011;36359;41.556;-8.418;2024-03-08T02:57:53;1.40;;;0.50;;
50429;SDS011;36359;41.556;-8.418;2024-03-08T03:00:22;3.07;;;0.50;;
50429;SDS011;36359;41.556;-8.418;2024-03-08T03:02:49;1.47;;;0.40;;
50429;SDS011;36359;41.556;-8.418;2024-03-08T03:05:19;2.03;;;0.50;;
50429;SDS011;36359;41.556;-8.418;2024-03-08T03:07:45;1.67;;;0.60;;
50429;SDS011;36359;41.556;-8.418;2024-03-08T03:10:11;2.37;;;0.70;;
50429;SDS011;36359;41.556;-8.418;2024-03-08T03:12:37;1.80;;;0.50;;
50429;SDS011;36359;41.556;-8.418;2024-03-08T03:15:04;1.83;;;0.60;;
50429;SDS011;36359;41.556;-8.418;2024-03-08T03:17:30;1.57;;;0.70;;
50429;SDS011;36359;41.556;-8.418;2024-03-08T03:19:55;2.17;;;0.80;;
50429;SDS011;36359;41.556;-8.418;2024-03-08T03:22:21;2.90;;;0.90;;
50429;SDS011;36359;41.556;-8.418;2024-03-08T03:24:47;1.53;;;1.10;;
50429;SDS011;36359;41.556;-8.418;2024-03-08T03:29:42;1.47;;;0.50;;
50429;SDS011;36359;41.556;-8.418;2024-03-08T03:32:11;1.33;;;0.40;;
50429;SDS011;36359;41.556;-8.418;2024-03-08T03:34:38;1.43;;;0.23;;
50429;SDS011;36359;41.556;-8.418;2024-03-08T03:37:04;0.63;;;0.40;;
50429;SDS011;36359;41.556;-8.418;2024-03-08T03:39:30;1.80;;;0.27;;
50429;SDS011;36359;41.556;-8.418;2024-03-08T03:41:57;0.77;;;0.30;;
50429;SDS011;36359;41.556;-8.418;2024-03-08T03:44:24;0.83;;;0.30;;
50429;SDS011;36359;41.556;-8.418;2024-03-08T03:46:50;1.10;;;0.20;;
50429;SDS011;36359;41.556;-8.418;2024-03-08T03:49:18;0.70;;;0.13;;
50429;SDS011;36359;41.556;-8.418;2024-03-08T03:51:44;0.47;;;0.20;;
50429;SDS011;36359;41.556;-8.418;2024-03-08T03:54:10;0.33;;;0.10;;
50429;SDS011;36359;41.556;-8.418;2024-03-08T03:56:36;1.40;;;0.20;;
50429;SDS011;36359;41.556;-8.418;2024-03-08T03:59:02;0.93;;;0.20;;
50429;SDS011;36359;41.556;-8.418;2024-03-08T04:01:28;1.47;;;0.20;;
50429;SDS011;36359;41.556;-8.418;2024-03-08T04:03:54;1.03;;;0.20;;
50429;SDS011;36359;41.556;-8.418;2024-03-08T04:06:20;2.10;;;0.33;;
50429;SDS011;36359;41.556;-8.418;2024-03-08T04:08:47;1.20;;;0.50;;
50429;SDS011;36359;41.556;-8.418;2024-03-08T04:11:15;2.57;;;0.33;;
50429;SDS011;36359;41.556;-8.418;2024-03-08T04:13:44;1.20;;;0.30;;
50429;SDS011;36359;41.556;-8.418;2024-03-08T04:16:10;1.73;;;0.20;;
50429;SDS011;36359;41.556;-8.418;2024-03-08T04:18:39;1.80;;;0.40;;
50429;SDS011;36359;41.556;-8.418;2024-03-08T04:21:05;0.90;;;0.40;;
50429;SDS011;36359;41.556;-8.418;2024-03-08T04:23:34;0.70;;;0.33;;
50429;SDS011;36359;41.556;-8.418;2024-03-08T04:26:02;1.13;;;0.30;;
50429;SDS011;36359;41.556;-8.418;2024-03-08T04:28:29;1.07;;;0.70;;
50429;SDS011;36359;41.556;-8.418;2024-03-08T04:30:56;1.50;;;0.60;;
50429;SDS011;36359;41.556;-8.418;2024-03-08T04:33:22;3.43;;;0.90;;
50429;SDS011;36359;41.556;-8.418;2024-03-08T04:35:48;1.73;;;0.77;;
50429;SDS011;36359;41.556;-8.418;2024-03-08T04:38:14;0.90;;;0.63;;
50429;SDS011;36359;41.556;-8.418;2024-03-08T04:40:41;0.97;;;0.40;;
50429;SDS011;36359;41.556;-8.418;2024-03-08T04:43:07;1.13;;;0.50;;
50429;SDS011;36359;41.556;-8.418;2024-03-08T04:45:34;2.03;;;0.60;;
50429;SDS011;36359;41.556;-8.418;2024-03-08T04:47:59;1.40;;;0.50;;
50429;SDS011;36359;41.556;-8.418;2024-03-08T04:50:25;1.30;;;0.50;;
50429;SDS011;36359;41.556;-8.418;2024-03-08T04:52:54;0.70;;;0.30;;
50429;SDS011;36359;41.556;-8.418;2024-03-08T04:55:20;2.50;;;0.50;;
50429;SDS011;36359;41.556;-8.418;2024-03-08T05:00:15;3.13;;;0.40;;
50429;SDS011;36359;41.556;-8.418;2024-03-08T05:02:41;3.47;;;0.43;;
50429;SDS011;36359;41.556;-8.418;2024-03-08T05:05:07;3.17;;;0.30;;
50429;SDS011;36359;41.556;-8.418;2024-03-08T05:07:38;1.38;;;0.30;;
50429;SDS011;36359;41.556;-8.418;2024-03-08T05:10:05;0.57;;;0.30;;
50429;SDS011;36359;41.556;-8.418;2024-03-08T05:12:32;1.73;;;0.50;;
50429;SDS011;36359;41.556;-8.418;2024-03-08T05:14:58;1.43;;;0.27;;
50429;SDS011;36359;41.556;-8.418;2024-03-08T05:17:24;8.30;;;1.03;;
50429;SDS011;36359;41.556;-8.418;2024-03-08T05:19:50;5.40;;;0.80;;
50429;SDS011;36359;41.556;-8.418;2024-03-08T05:22:16;7.50;;;1.33;;
50429;SDS011;36359;41.556;-8.418;2024-03-08T05:24:42;10.40;;;1.73;;
50429;SDS011;36359;41.556;-8.418;2024-03-08T05:27:08;12.33;;;1.87;;
50429;SDS011;36359;41.556;-8.418;2024-03-08T05:29:34;21.17;;;2.93;;
50429;SDS011;36359;41.556;-8.418;2024-03-08T05:32:00;13.17;;;1.63;;
50429;SDS011;36359;41.556;-8.418;2024-03-08T05:34:26;17.27;;;2.83;;
50429;SDS011;36359;41.556;-8.418;2024-03-08T05:36:53;11.73;;;1.97;;
50429;SDS011;36359;41.556;-8.418;2024-03-08T05:39:19;13.90;;;2.77;;
50429;SDS011;36359;41.556;-8.418;2024-03-08T05:41:45;19.13;;;2.33;;
50429;SDS011;36359;41.556;-8.418;2024-03-08T05:44:12;20.20;;;2.87;;
50429;SDS011;36359;41.556;-8.418;2024-03-08T05:46:38;14.93;;;2.70;;
50429;SDS011;36359;41.556;-8.418;2024-03-08T05:49:04;18.70;;;1.90;;
50429;SDS011;36359;41.556;-8.418;2024-03-08T05:51:31;16.77;;;3.30;;
50429;SDS011;36359;41.556;-8.418;2024-03-08T05:54:01;14.10;;;2.30;;
50429;SDS011;36359;41.556;-8.418;2024-03-08T05:56:31;8.60;;;2.13;;
50429;SDS011;36359;41.556;-8.418;2024-03-08T05:58:57;9.73;;;1.93;;
50429;SDS011;36359;41.556;-8.418;2024-03-08T06:01:26;18.20;;;2.97;;
50429;SDS011;36359;41.556;-8.418;2024-03-08T06:03:52;20.33;;;2.70;;
50429;SDS011;36359;41.556;-8.418;2024-03-08T06:06:21;16.10;;;2.20;;
50429;SDS011;36359;41.556;-8.418;2024-03-08T06:08:47;13.10;;;1.83;;
50429;SDS011;36359;41.556;-8.418;2024-03-08T06:11:14;15.43;;;2.37;;
50429;SDS011;36359;41.556;-8.418;2024-03-08T06:13:42;18.23;;;2.97;;
50429;SDS011;36359;41.556;-8.418;2024-03-08T06:16:08;19.77;;;2.93;;
50429;SDS011;36359;41.556;-8.418;2024-03-08T06:18:34;21.50;;;2.63;;
50429;SDS011;36359;41.556;-8.418;2024-03-08T06:21:04;19.40;;;2.80;;
50429;SDS011;36359;41.556;-8.418;2024-03-08T06:23:34;19.63;;;2.80;;
50429;SDS011;36359;41.556;-8.418;2024-03-08T06:26:09;14.23;;;1.87;;
50429;SDS011;36359;41.556;-8.418;2024-03-08T06:28:35;10.20;;;1.60;;
50429;SDS011;36359;41.556;-8.418;2024-03-08T06:31:01;10.20;;;1.70;;
50429;SDS011;36359;41.556;-8.418;2024-03-08T06:33:27;13.40;;;1.90;;
50429;SDS011;36359;41.556;-8.418;2024-03-08T06:35:56;13.40;;;2.30;;
50429;SDS011;36359;41.556;-8.418;2024-03-08T06:38:23;14.90;;;2.80;;
50429;SDS011;36359;41.556;-8.418;2024-03-08T06:40:51;25.47;;;3.27;;
50429;SDS011;36359;41.556;-8.418;2024-03-08T06:43:18;16.00;;;2.90;;
50429;SDS011;36359;41.556;-8.418;2024-03-08T06:45:44;20.10;;;2.97;;
50429;SDS011;36359;41.556;-8.418;2024-03-08T06:48:17;22.17;;;3.60;;
50429;SDS011;36359;41.556;-8.418;2024-03-08T06:50:44;16.33;;;2.83;;
50429;SDS011;36359;41.556;-8.418;2024-03-08T06:53:10;15.37;;;2.53;;
50429;SDS011;36359;41.556;-8.418;2024-03-08T06:55:37;13.80;;;2.50;;
50429;SDS011;36359;41.556;-8.418;2024-03-08T06:58:03;20.00;;;3.33;;
50429;SDS011;36359;41.556;-8.418;2024-03-08T07:00:29;17.10;;;2.30;;
50429;SDS011;36359;41.556;-8.418;2024-03-08T07:02:56;20.77;;;2.47;;
50429;SDS011;36359;41.556;-8.418;2024-03-08T07:05:29;20.55;;;2.72;;
50429;SDS011;36359;41.556;-8.418;2024-03-08T07:07:55;14.50;;;2.30;;
50429;SDS011;36359;41.556;-8.418;2024-03-08T07:10:22;18.47;;;2.97;;
50429;SDS011;36359;41.556;-8.418;2024-03-08T07:12:50;13.67;;;2.97;;
50429;SDS011;36359;41.556;-8.418;2024-03-08T07:15:16;15.87;;;2.67;;
50429;SDS011;36359;41.556;-8.418;2024-03-08T07:17:45;10.37;;;1.80;;
50429;SDS011;36359;41.556;-8.418;2024-03-08T07:20:12;17.83;;;2.73;;
50429;SDS011;36359;41.556;-8.418;2024-03-08T07:22:46;20.47;;;2.63;;
50429;SDS011;36359;41.556;-8.418;2024-03-08T07:25:13;16.27;;;2.73;;
50429;SDS011;36359;41.556;-8.418;2024-03-08T07:27:55;11.17;;;1.53;;
50429;SDS011;36359;41.556;-8.418;2024-03-08T07:30:22;16.03;;;2.40;;
50429;SDS011;36359;41.556;-8.418;2024-03-08T07:33:07;13.03;;;2.37;;
50429;SDS011;36359;41.556;-8.418;2024-03-08T07:35:39;14.47;;;2.27;;
50429;SDS011;36359;41.556;-8.418;2024-03-08T07:38:07;13.90;;;2.60;;
50429;SDS011;36359;41.556;-8.418;2024-03-08T07:40:37;18.97;;;2.80;;
50429;SDS011;36359;41.556;-8.418;2024-03-08T07:43:09;13.97;;;1.97;;
50429;SDS011;36359;41.556;-8.418;2024-03-08T07:45:36;15.95;;;2.13;;
50429;SDS011;36359;41.556;-8.418;2024-03-08T07:48:03;15.43;;;2.60;;
50429;SDS011;36359;41.556;-8.418;2024-03-08T07:50:29;7.13;;;1.40;;
50429;SDS011;36359;41.556;-8.418;2024-03-08T07:52:55;9.53;;;1.97;;
50429;SDS011;36359;41.556;-8.418;2024-03-08T07:55:20;12.57;;;2.37;;
50429;SDS011;36359;41.556;-8.418;2024-03-08T07:57:49;15.53;;;2.23;;
50429;SDS011;36359;41.556;-8.418;2024-03-08T08:00:15;11.77;;;1.90;;
50429;SDS011;36359;41.556;-8.418;2024-03-08T08:02:44;15.03;;;3.00;;
50429;SDS011;36359;41.556;-8.418;2024-03-08T08:05:11;16.30;;;2.63;;
50429;SDS011;36359;41.556;-8.418;2024-03-08T08:07:37;18.50;;;2.90;;
50429;SDS011;36359;41.556;-8.418;2024-03-08T08:10:03;15.90;;;2.87;;
50429;SDS011;36359;41.556;-8.418;2024-03-08T08:12:31;11.63;;;2.27;;
50429;SDS011;36359;41.556;-8.418;2024-03-08T08:14:59;13.67;;;2.53;;
50429;SDS011;36359;41.556;-8.418;2024-03-08T08:17:25;19.80;;;3.05;;
50429;SDS011;36359;41.556;-8.418;2024-03-08T08:19:51;17.50;;;3.43;;
50429;SDS011;36359;41.556;-8.418;2024-03-08T08:22:17;16.40;;;3.22;;
50429;SDS011;36359;41.556;-8.418;2024-03-08T08:24:43;10.15;;;2.08;;
50429;SDS011;36359;41.556;-8.418;2024-03-08T08:27:09;19.52;;;2.72;;
50429;SDS011;36359;41.556;-8.418;2024-03-08T08:29:37;14.65;;;2.50;;
50429;SDS011;36359;41.556;-8.418;2024-03-08T08:32:03;17.60;;;3.13;;
50429;SDS011;36359;41.556;-8.418;2024-03-08T08:34:29;13.57;;;2.23;;
50429;SDS011;36359;41.556;-8.418;2024-03-08T08:36:55;22.00;;;2.67;;
50429;SDS011;36359;41.556;-8.418;2024-03-08T08:39:21;12.13;;;2.33;;
50429;SDS011;36359;41.556;-8.418;2024-03-08T08:41:48;8.87;;;1.43;;
50429;SDS011;36359;41.556;-8.418;2024-03-08T08:44:14;15.80;;;3.00;;
50429;SDS011;36359;41.556;-8.418;2024-03-08T08:46:40;20.37;;;3.50;;
50429;SDS011;36359;41.556;-8.418;2024-03-08T08:49:06;14.77;;;2.40;;
50429;SDS011;36359;41.556;-8.418;2024-03-08T08:51:36;15.20;;;2.37;;
50429;SDS011;36359;41.556;-8.418;2024-03-08T08:54:02;15.60;;;2.50;;
50429;SDS011;36359;41.556;-8.418;2024-03-08T08:56:28;11.20;;;2.00;;
50429;SDS011;36359;41.556;-8.418;2024-03-08T08:58:54;16.90;;;2.50;;
50429;SDS011;36359;41.556;-8.418;2024-03-08T09:01:20;19.97;;;2.83;;
50429;SDS011;36359;41.556;-8.418;2024-03-08T09:03:46;18.37;;;2.80;;
50429;SDS011;36359;41.556;-8.418;2024-03-08T09:06:12;23.93;;;2.50;;
50429;SDS011;36359;41.556;-8.418;2024-03-08T09:08:38;17.20;;;2.27;;
50429;SDS011;36359;41.556;-8.418;2024-03-08T09:11:05;20.97;;;2.73;;
50429;SDS011;36359;41.556;-8.418;2024-03-08T09:13:31;15.20;;;2.50;;
50429;SDS011;36359;41.556;-8.418;2024-03-08T09:15:59;13.17;;;2.27;;
50429;SDS011;36359;41.556;-8.418;2024-03-08T09:18:25;12.43;;;1.90;;
50429;SDS011;36359;41.556;-8.418;2024-03-08T09:20:51;12.13;;;1.90;;
50429;SDS011;36359;41.556;-8.418;2024-03-08T09:23:19;11.70;;;2.23;;
50429;SDS011;36359;41.556;-8.418;2024-03-08T09:25:45;13.93;;;2.20;;
50429;SDS011;36359;41.556;-8.418;2024-03-08T09:28:12;8.23;;;1.60;;
50429;SDS011;36359;41.556;-8.418;2024-03-08T09:30:38;13.55;;;2.13;;
50429;SDS011;36359;41.556;-8.418;2024-03-08T09:33:07;13.73;;;2.13;;
50429;SDS011;36359;41.556;-8.418;2024-03-08T09:35:33;12.77;;;2.23;;
50429;SDS011;36359;41.556;-8.418;2024-03-08T09:37:59;9.80;;;1.92;;
50429;SDS011;36359;41.556;-8.418;2024-03-08T09:40:24;12.68;;;2.20;;
50429;SDS011;36359;41.556;-8.418;2024-03-08T09:42:51;12.13;;;2.13;;
50429;SDS011;36359;41.556;-8.418;2024-03-08T09:45:17;13.50;;;2.00;;
50429;SDS011;36359;41.556;-8.418;2024-03-08T09:47:47;9.73;;;1.55;;
50429;SDS011;36359;41.556;-8.418;2024-03-08T09:50:14;15.88;;;2.15;;
50429;SDS011;36359;41.556;-8.418;2024-03-08T09:52:41;9.77;;;1.35;;
50429;SDS011;36359;41.556;-8.418;2024-03-08T09:55:12;14.25;;;3.08;;
50429;SDS011;36359;41.556;-8.418;2024-03-08T09:57:38;14.32;;;2.58;;
50429;SDS011;36359;41.556;-8.418;2024-03-08T10:00:05;14.60;;;2.05;;
50429;SDS011;36359;41.556;-8.418;2024-03-08T10:02:49;12.98;;;2.30;;
50429;SDS011;36359;41.556;-8.418;2024-03-08T10:05:17;14.32;;;2.47;;
50429;SDS011;36359;41.556;-8.418;2024-03-08T10:07:43;19.13;;;2.60;;
50429;SDS011;36359;41.556;-8.418;2024-03-08T10:10:09;13.95;;;2.03;;
50429;SDS011;36359;41.556;-8.418;2024-03-08T10:12:37;14.07;;;2.42;;
50429;SDS011;36359;41.556;-8.418;2024-03-08T10:15:07;12.68;;;1.95;;
50429;SDS011;36359;41.556;-8.418;2024-03-08T10:17:34;10.82;;;2.08;;
50429;SDS011;36359;41.556;-8.418;2024-03-08T10:20:01;7.22;;;1.50;;
50429;SDS011;36359;41.556;-8.418;2024-03-08T10:22:28;11.90;;;2.22;;
50429;SDS011;36359;41.556;-8.418;2024-03-08T10:24:54;10.95;;;1.85;;
50429;SDS011;36359;41.556;-8.418;2024-03-08T10:27:20;13.55;;;2.28;;
50429;SDS011;36359;41.556;-8.418;2024-03-08T10:29:47;9.88;;;1.83;;
50429;SDS011;36359;41.556;-8.418;2024-03-08T10:32:14;8.82;;;1.80;;
50429;SDS011;36359;41.556;-8.418;2024-03-08T10:34:40;10.20;;;2.30;;
50429;SDS011;36359;41.556;-8.418;2024-03-08T10:37:07;10.20;;;1.63;;
50429;SDS011;36359;41.556;-8.418;2024-03-08T10:39:38;14.18;;;2.30;;
50429;SDS011;36359;41.556;-8.418;2024-03-08T10:42:10;9.57;;;1.67;;
50429;SDS011;36359;41.556;-8.418;2024-03-08T10:44:46;8.52;;;1.70;;
50429;SDS011;36359;41.556;-8.418;2024-03-08T10:47:34;10.75;;;1.48;;
50429;SDS011;36359;41.556;-8.418;2024-03-08T10:50:19;12.07;;;1.77;;
50429;SDS011;36359;41.556;-8.418;2024-03-08T10:52:50;9.20;;;1.38;;
50429;SDS011;36359;41.556;-8.418;2024-03-08T10:55:17;11.30;;;1.73;;
50429;SDS011;36359;41.556;-8.418;2024-03-08T10:57:46;7.40;;;1.40;;
50429;SDS011;36359;41.556;-8.418;2024-03-08T11:00:16;11.80;;;1.45;;
50429;SDS011;36359;41.556;-8.418;2024-03-08T11:02:44;13.13;;;1.83;;
50429;SDS011;36359;41.556;-8.418;2024-03-08T11:05:10;11.43;;;2.50;;
50429;SDS011;36359;41.556;-8.418;2024-03-08T11:07:57;7.43;;;1.50;;
50429;SDS011;36359;41.556;-8.418;2024-03-08T11:10:24;6.90;;;1.70;;
50429;SDS011;36359;41.556;-8.418;2024-03-08T11:12:51;13.80;;;1.70;;
50429;SDS011;36359;41.556;-8.418;2024-03-08T11:15:17;13.33;;;1.97;;
50429;SDS011;36359;41.556;-8.418;2024-03-08T11:17:49;10.95;;;1.63;;
50429;SDS011;36359;41.556;-8.418;2024-03-08T11:20:16;15.73;;;2.63;;
50429;SDS011;36359;41.556;-8.418;2024-03-08T11:22:49;11.77;;;1.70;;
50429;SDS011;36359;41.556;-8.418;2024-03-08T11:28:20;11.38;;;1.75;;
50429;SDS011;36359;41.556;-8.418;2024-03-08T11:33:34;6.63;;;1.08;;
50429;SDS011;36359;41.556;-8.418;2024-03-08T11:38:42;14.70;;;2.42;;
50429;SDS011;36359;41.556;-8.418;2024-03-08T11:41:17;15.23;;;2.20;;
50429;SDS011;36359;41.556;-8.418;2024-03-08T11:43:45;6.95;;;1.52;;
50429;SDS011;36359;41.556;-8.418;2024-03-08T11:46:11;13.45;;;1.70;;
50429;SDS011;36359;41.556;-8.418;2024-03-08T11:48:39;12.15;;;1.92;;
50429;SDS011;36359;41.556;-8.418;2024-03-08T11:51:07;10.02;;;1.38;;
50429;SDS011;36359;41.556;-8.418;2024-03-08T11:53:34;12.07;;;1.95;;
50429;SDS011;36359;41.556;-8.418;2024-03-08T11:56:11;13.40;;;2.17;;
50429;SDS011;36359;41.556;-8.418;2024-03-08T11:58:38;5.43;;;1.00;;
50429;SDS011;36359;41.556;-8.418;2024-03-08T12:01:09;15.13;;;2.25;;
50429;SDS011;36359;41.556;-8.418;2024-03-08T12:03:41;7.57;;;1.27;;
50429;SDS011;36359;41.556;-8.418;2024-03-08T12:06:11;11.57;;;1.35;;
50429;SDS011;36359;41.556;-8.418;2024-03-08T12:11:04;7.45;;;1.25;;
50429;SDS011;36359;41.556;-8.418;2024-03-08T12:13:31;10.18;;;1.40;;
50429;SDS011;36359;41.556;-8.418;2024-03-08T12:15:59;8.88;;;1.48;;
50429;SDS011;36359;41.556;-8.418;2024-03-08T12:18:35;8.85;;;1.15;;
50429;SDS011;36359;41.556;-8.418;2024-03-08T12:23:36;11.97;;;1.70;;
50429;SDS011;36359;41.556;-8.418;2024-03-08T12:26:11;14.15;;;1.58;;
50429;SDS011;36359;41.556;-8.418;2024-03-08T12:31:52;7.80;;;1.15;;
50429;SDS011;36359;41.556;-8.418;2024-03-08T12:34:19;8.15;;;0.88;;
50429;SDS011;36359;41.556;-8.418;2024-03-08T12:36:46;10.07;;;1.50;;
50429;SDS011;36359;41.556;-8.418;2024-03-08T12:39:18;10.15;;;1.20;;
50429;SDS011;36359;41.556;-8.418;2024-03-08T12:41:52;4.90;;;0.85;;
50429;SDS011;36359;41.556;-8.418;2024-03-08T12:44:19;8.30;;;1.05;;
50429;SDS011;36359;41.556;-8.418;2024-03-08T12:46:47;8.65;;;1.20;;
50429;SDS011;36359;41.556;-8.418;2024-03-08T12:49:13;11.48;;;1.52;;
50429;SDS011;36359;41.556;-8.418;2024-03-08T12:51:43;5.18;;;0.82;;
50429;SDS011;36359;41.556;-8.418;2024-03-08T12:54:10;8.43;;;1.10;;
50429;SDS011;36359;41.556;-8.418;2024-03-08T12:56:36;7.28;;;1.08;;
50429;SDS011;36359;41.556;-8.418;2024-03-08T12:59:06;8.50;;;1.52;;
50429;SDS011;36359;41.556;-8.418;2024-03-08T13:01:33;5.63;;;0.90;;
50429;SDS011;36359;41.556;-8.418;2024-03-08T13:04:02;5.32;;;0.95;;
50429;SDS011;36359;41.556;-8.418;2024-03-08T13:06:29;10.52;;;1.33;;
50429;SDS011;36359;41.556;-8.418;2024-03-08T13:08:56;9.45;;;1.23;;
50429;SDS011;36359;41.556;-8.418;2024-03-08T13:11:24;7.90;;;1.20;;
50429;SDS011;36359;41.556;-8.418;2024-03-08T13:13:50;5.22;;;1.42;;
50429;SDS011;36359;41.556;-8.418;2024-03-08T13:16:18;9.68;;;1.15;;
50429;SDS011;36359;41.556;-8.418;2024-03-08T13:18:44;8.68;;;1.17;;
50429;SDS011;36359;41.556;-8.418;2024-03-08T13:21:14;5.18;;;1.00;;
50429;SDS011;36359;41.556;-8.418;2024-03-08T13:23:40;8.35;;;1.40;;
50429;SDS011;36359;41.556;-8.418;2024-03-08T13:26:11;6.43;;;0.95;;
50429;SDS011;36359;41.556;-8.418;2024-03-08T13:28:43;10.68;;;1.55;;
50429;SDS011;36359;41.556;-8.418;2024-03-08T13:31:10;6.68;;;1.65;;
50429;SDS011;36359;41.556;-8.418;2024-03-08T13:33:36;6.13;;;1.15;;
50429;SDS011;36359;41.556;-8.418;2024-03-08T13:36:05;7.40;;;1.55;;
50429;SDS011;36359;41.556;-8.418;2024-03-08T13:38:32;4.25;;;0.82;;
50429;SDS011;36359;41.556;-8.418;2024-03-08T13:40:59;5.93;;;1.23;;
50429;SDS011;36359;41.556;-8.418;2024-03-08T13:43:24;11.80;;;1.45;;
50429;SDS011;36359;41.556;-8.418;2024-03-08T13:45:50;6.40;;;1.20;;
50429;SDS011;36359;41.556;-8.418;2024-03-08T13:48:20;7.43;;;1.27;;
50429;SDS011;36359;41.556;-8.418;2024-03-08T13:50:48;8.38;;;1.13;;
50429;SDS011;36359;41.556;-8.418;2024-03-08T13:53:15;8.45;;;1.55;;
50429;SDS011;36359;41.556;-8.418;2024-03-08T13:55:41;7.53;;;1.20;;
50429;SDS011;36359;41.556;-8.418;2024-03-08T13:58:06;8.07;;;1.38;;
50429;SDS011;36359;41.556;-8.418;2024-03-08T14:00:35;6.28;;;1.33;;
50429;SDS011;36359;41.556;-8.418;2024-03-08T14:03:01;4.57;;;0.80;;
50429;SDS011;36359;41.556;-8.418;2024-03-08T14:05:38;6.00;;;1.08;;
50429;SDS011;36359;41.556;-8.418;2024-03-08T14:08:05;5.82;;;1.00;;
50429;SDS011;36359;41.556;-8.418;2024-03-08T14:10:34;6.37;;;0.90;;
50429;SDS011;36359;41.556;-8.418;2024-03-08T14:13:02;7.18;;;1.25;;
50429;SDS011;36359;41.556;-8.418;2024-03-08T14:15:33;6.95;;;1.20;;
50429;SDS011;36359;41.556;-8.418;2024-03-08T14:18:00;7.38;;;1.60;;
50429;SDS011;36359;41.556;-8.418;2024-03-08T14:20:27;2.72;;;0.80;;
50429;SDS011;36359;41.556;-8.418;2024-03-08T14:22:53;8.25;;;1.10;;
50429;SDS011;36359;41.556;-8.418;2024-03-08T14:25:20;6.50;;;1.00;;
50429;SDS011;36359;41.556;-8.418;2024-03-08T14:27:52;6.50;;;0.93;;
50429;SDS011;36359;41.556;-8.418;2024-03-08T14:30:28;7.60;;;1.55;;
50429;SDS011;36359;41.556;-8.418;2024-03-08T14:33:07;6.30;;;1.20;;
50429;SDS011;36359;41.556;-8.418;2024-03-08T14:35:36;5.97;;;1.38;;
50429;SDS011;36359;41.556;-8.418;2024-03-08T14:38:02;7.10;;;1.35;;
50429;SDS011;36359;41.556;-8.418;2024-03-08T14:40:28;5.03;;;1.15;;
50429;SDS011;36359;41.556;-8.418;2024-03-08T14:42:55;6.78;;;1.10;;
50429;SDS011;36359;41.556;-8.418;2024-03-08T14:45:22;9.50;;;1.67;;
50429;SDS011;36359;41.556;-8.418;2024-03-08T14:47:49;7.55;;;1.20;;
50429;SDS011;36359;41.556;-8.418;2024-03-08T14:50:19;6.38;;;1.40;;
50429;SDS011;36359;41.556;-8.418;2024-03-08T14:52:48;6.90;;;1.00;;
50429;SDS011;36359;41.556;-8.418;2024-03-08T14:55:17;6.70;;;1.25;;
50429;SDS011;36359;41.556;-8.418;2024-03-08T14:57:49;5.80;;;1.15;;